Time;durP1;ratioP1;P1;durP2;ratioP2;P2;SDS_P1;SDS_P2;PMS_P1;PMS_P2;Temp;Humidity;BMP_temperature;BMP_pressure;BME280_temperature;BME280_humidity;BME280_pressure;Samples;Min_cycle;Max_cycle;Signal;HPM_P1;HPM_P2
2020/12/22 00:00:06;;;;;;;28.60;13.07;;;1.70;99.90;;;;;;4151616;28;20341;-44
2020/12/22 00:02:08;;;;;;;30.63;13.83;;;1.70;99.90;;;;;;4141473;28;20326;-44
2020/12/22 00:04:10;;;;;;;29.40;14.27;;;1.60;99.90;;;;;;4142231;28;20666;-42
2020/12/22 00:06:11;;;;;;;27.93;12.17;;;1.60;99.90;;;;;;4142634;28;20283;-56
2020/12/22 00:08:12;;;;;;;28.87;11.77;;;1.60;99.90;;;;;;4144130;28;20286;-52
2020/12/22 00:10:14;;;;;;;23.13;12.20;;;1.60;99.90;;;;;;4158421;28;20332;-53
2020/12/22 00:12:18;;;;;;;24.27;11.20;;;1.60;99.90;;;;;;4158017;28;20344;-50
2020/12/22 00:14:19;;;;;;;24.33;11.30;;;1.50;99.90;;;;;;4145896;28;20279;-51
2020/12/22 00:16:21;;;;;;;24.13;10.50;;;1.50;99.90;;;;;;4140962;28;20279;-46
2020/12/22 00:18:22;;;;;;;20.93;11.40;;;1.50;99.90;;;;;;4141445;28;20694;-45
2020/12/22 00:20:23;;;;;;;21.43;11.00;;;1.50;99.90;;;;;;4140734;28;20333;-56
2020/12/22 00:22:24;;;;;;;25.37;12.13;;;1.50;99.90;;;;;;4142658;28;20660;-48
2020/12/22 00:24:25;;;;;;;23.70;12.70;;;1.50;99.90;;;;;;4141402;28;20759;-45
2020/12/22 00:26:27;;;;;;;24.70;11.00;;;1.40;99.90;;;;;;4142312;28;20343;-44
2020/12/22 00:28:28;;;;;;;25.90;11.83;;;1.40;99.90;;;;;;4140906;28;20287;-50
2020/12/22 00:30:29;;;;;;;24.20;12.30;;;1.40;99.90;;;;;;4142270;28;20357;-53
2020/12/22 00:32:33;;;;;;;23.30;11.67;;;1.40;99.90;;;;;;4151980;28;20344;-45
2020/12/22 00:34:34;;;;;;;22.67;10.90;;;1.40;99.90;;;;;;4158636;28;20290;-43
2020/12/22 00:36:35;;;;;;;29.40;12.30;;;1.40;99.90;;;;;;4143553;28;20744;-48
2020/12/22 00:38:36;;;;;;;23.00;11.93;;;1.30;99.90;;;;;;4142064;28;20267;-45
2020/12/22 00:40:38;;;;;;;25.53;10.77;;;1.40;99.90;;;;;;4141738;28;20275;-43
2020/12/22 00:42:39;;;;;;;28.13;11.90;;;1.40;99.90;;;;;;4140723;28;20268;-45
2020/12/22 00:44:40;;;;;;;24.30;11.07;;;1.30;99.90;;;;;;4152237;28;20778;-41
2020/12/22 00:46:41;;;;;;;27.53;12.47;;;1.30;99.90;;;;;;4144473;28;20321;-45
2020/12/22 00:48:48;;;;;;;26.23;12.50;;;1.30;99.90;;;;;;4143546;28;21201;-43
2020/12/22 00:50:50;;;;;;;24.87;12.40;;;1.30;99.90;;;;;;4154534;28;20828;-52
2020/12/22 00:52:52;;;;;;;31.03;13.73;;;1.20;99.90;;;;;;4158374;28;20316;-42
2020/12/22 00:54:53;;;;;;;23.43;11.43;;;1.20;99.90;;;;;;4156226;28;20349;-44
2020/12/22 00:56:55;;;;;;;25.57;12.53;;;1.20;99.90;;;;;;4144772;28;20321;-53
2020/12/22 00:58:56;;;;;;;26.03;11.67;;;1.20;99.90;;;;;;4139947;28;20893;-47
2020/12/22 01:00:57;;;;;;;28.37;12.80;;;1.20;99.90;;;;;;4141650;28;20267;-51
2020/12/22 01:02:58;;;;;;;24.47;11.93;;;1.20;99.90;;;;;;4140107;28;20683;-49
2020/12/22 01:04:59;;;;;;;28.30;12.73;;;1.20;99.90;;;;;;4141697;28;20309;-44
2020/12/22 01:07:00;;;;;;;26.70;12.70;;;1.20;99.90;;;;;;4155410;28;20263;-44
2020/12/22 01:09:01;;;;;;;27.53;12.10;;;1.20;99.90;;;;;;4157697;28;20303;-47
2020/12/22 01:11:03;;;;;;;28.97;13.97;;;1.20;99.90;;;;;;4154608;28;20781;-43
2020/12/22 01:13:04;;;;;;;31.90;13.87;;;1.20;99.90;;;;;;4140326;28;20662;-47
2020/12/22 01:15:05;;;;;;;23.90;12.13;;;1.20;99.90;;;;;;4140660;28;20318;-45
2020/12/22 01:17:06;;;;;;;29.77;13.33;;;1.10;99.90;;;;;;4139931;28;20259;-50
2020/12/22 01:19:07;;;;;;;29.40;13.43;;;1.20;99.90;;;;;;4141238;28;20275;-47
2020/12/22 01:21:08;;;;;;;26.50;13.00;;;1.20;99.90;;;;;;4139947;28;20839;-43
2020/12/22 01:23:09;;;;;;;29.40;14.03;;;1.10;99.90;;;;;;4145702;28;20345;-42
2020/12/22 01:25:11;;;;;;;27.30;12.57;;;1.10;99.90;;;;;;4140686;28;20266;-47
2020/12/22 01:27:12;;;;;;;29.03;13.63;;;1.20;99.90;;;;;;4141924;28;20279;-46
2020/12/22 01:29:13;;;;;;;26.37;13.43;;;1.20;99.90;;;;;;4140216;28;20291;-47
2020/12/22 01:31:41;;;;;;;25.37;12.83;;;1.20;99.90;;;;;;4140681;28;20356;-50
2020/12/22 01:33:42;;;;;;;31.57;14.07;;;1.20;99.90;;;;;;4136406;28;20683;-47
2020/12/22 01:35:44;;;;;;;28.97;13.53;;;1.20;99.90;;;;;;4140969;28;20274;-44
2020/12/22 01:37:45;;;;;;;30.57;13.37;;;1.10;99.90;;;;;;4153727;28;20341;-53
2020/12/22 01:39:46;;;;;;;27.03;12.93;;;1.10;99.90;;;;;;4146377;28;20272;-50
2020/12/22 01:41:47;;;;;;;29.00;13.70;;;1.10;99.90;;;;;;4140435;28;20275;-46
2020/12/22 01:44:23;;;;;;;31.87;13.23;;;1.10;99.90;;;;;;4141545;28;20279;-43
2020/12/22 01:46:28;;;;;;;26.90;12.37;;;1.10;99.90;;;;;;4073984;29;20329;-43
2020/12/22 01:48:29;;;;;;;25.30;12.00;;;1.20;99.90;;;;;;4112330;28;20690;-48
2020/12/22 01:50:31;;;;;;;29.20;14.00;;;1.20;99.90;;;;;;4139558;28;20267;-44
2020/12/22 01:52:32;;;;;;;29.73;12.87;;;1.20;99.90;;;;;;4140413;28;20675;-45
2020/12/22 01:54:33;;;;;;;28.70;13.10;;;1.20;99.90;;;;;;4150087;28;20275;-44
2020/12/22 01:56:37;;;;;;;25.33;12.73;;;1.20;99.90;;;;;;4156043;28;20786;-49
2020/12/22 01:58:38;;;;;;;23.87;11.87;;;1.20;99.90;;;;;;4134340;28;20694;-47
2020/12/22 02:00:39;;;;;;;28.57;12.30;;;1.20;99.90;;;;;;4122108;28;20330;-48
2020/12/22 02:02:40;;;;;;;23.67;12.33;;;1.20;99.90;;;;;;4153534;28;20282;-42
2020/12/22 02:04:41;;;;;;;28.07;12.80;;;1.20;99.90;;;;;;4146352;28;20275;-53
2020/12/22 02:06:43;;;;;;;23.17;11.70;;;1.20;99.90;;;;;;4157069;28;20267;-44
2020/12/22 02:08:44;;;;;;;26.33;12.50;;;1.20;99.90;;;;;;4156317;28;20328;-43
2020/12/22 02:10:49;;;;;;;28.13;12.93;;;1.10;99.90;;;;;;4156998;28;20348;-44
2020/12/22 02:12:51;;;;;;;26.97;12.97;;;1.20;99.90;;;;;;4154817;28;20279;-48
2020/12/22 02:14:52;;;;;;;25.50;12.83;;;1.20;99.90;;;;;;4144039;28;20299;-44
2020/12/22 02:16:53;;;;;;;25.80;12.17;;;1.10;99.90;;;;;;4138923;28;20652;-47
2020/12/22 02:18:55;;;;;;;25.17;12.77;;;1.20;99.90;;;;;;4140866;28;20284;-48
2020/12/22 02:21:02;;;;;;;21.67;11.50;;;1.20;99.90;;;;;;4155492;28;20274;-46
2020/12/22 02:23:03;;;;;;;28.17;13.47;;;1.10;99.90;;;;;;4156283;28;20360;-44
2020/12/22 02:25:15;;;;;;;25.03;12.23;;;1.10;99.90;;;;;;4151963;28;20332;-42
2020/12/22 02:27:16;;;;;;;28.50;11.90;;;1.10;99.90;;;;;;4140079;28;20291;-49
2020/12/22 02:29:18;;;;;;;29.60;12.30;;;1.10;99.90;;;;;;4138537;28;20303;-52
2020/12/22 02:31:22;;;;;;;25.87;12.23;;;1.20;99.90;;;;;;4140531;28;20310;-48
2020/12/22 02:33:23;;;;;;;23.90;12.40;;;1.20;99.90;;;;;;4152818;28;20308;-46
2020/12/22 02:35:26;;;;;;;26.77;12.33;;;1.20;99.90;;;;;;4155714;28;20812;-47
2020/12/22 02:37:27;;;;;;;31.90;13.30;;;1.20;99.90;;;;;;4140995;28;20283;-47
2020/12/22 02:39:28;;;;;;;28.43;13.33;;;1.20;99.90;;;;;;4139213;28;20301;-48
2020/12/22 02:41:29;;;;;;;27.03;13.00;;;1.20;99.90;;;;;;4139892;28;20272;-53
2020/12/22 02:43:31;;;;;;;26.40;12.40;;;1.20;99.90;;;;;;4139553;28;20271;-46
2020/12/22 02:45:32;;;;;;;27.20;13.13;;;1.20;99.90;;;;;;4140368;28;20325;-41
2020/12/22 02:47:33;;;;;;;30.60;13.20;;;1.20;99.90;;;;;;4139239;28;20826;-46
2020/12/22 02:49:34;;;;;;;28.80;13.17;;;1.10;99.90;;;;;;4156059;28;20294;-50
2020/12/22 02:51:35;;;;;;;28.80;13.20;;;1.20;99.90;;;;;;4137679;28;20314;-45
2020/12/22 02:53:36;;;;;;;26.80;12.70;;;1.20;99.90;;;;;;4153962;28;20279;-42
2020/12/22 02:55:37;;;;;;;21.90;12.20;;;1.20;99.90;;;;;;4138396;28;20326;-48
2020/12/22 02:57:38;;;;;;;24.73;11.33;;;1.20;99.90;;;;;;4150364;28;20341;-45
2020/12/22 02:59:40;;;;;;;21.00;10.53;;;1.10;99.90;;;;;;4140621;28;20287;-50
2020/12/22 03:01:41;;;;;;;23.60;11.60;;;1.10;99.90;;;;;;4146802;28;20687;-52
2020/12/22 03:03:42;;;;;;;22.63;11.13;;;1.10;99.90;;;;;;4138298;28;20326;-52
2020/12/22 03:05:43;;;;;;;25.73;12.07;;;1.10;99.90;;;;;;4139797;28;20267;-52
2020/12/22 03:07:45;;;;;;;22.23;11.37;;;1.10;99.90;;;;;;4155258;28;20267;-47
2020/12/22 03:09:46;;;;;;;24.03;12.17;;;1.10;99.90;;;;;;4155948;28;20282;-51
2020/12/22 03:11:47;;;;;;;23.00;11.63;;;1.00;99.90;;;;;;4158273;28;20279;-43
2020/12/22 03:13:48;;;;;;;29.30;11.70;;;1.10;99.90;;;;;;4150700;28;20279;-43
2020/12/22 03:15:49;;;;;;;29.00;12.30;;;1.00;99.90;;;;;;4144643;28;20283;-43
2020/12/22 03:17:50;;;;;;;25.67;12.47;;;1.10;99.90;;;;;;4144360;28;20686;-46
2020/12/22 03:19:51;;;;;;;24.83;12.23;;;1.10;99.90;;;;;;4144738;28;20314;-49
2020/12/22 03:21:52;;;;;;;25.57;11.83;;;1.10;99.90;;;;;;4143231;28;21198;-51
2020/12/22 03:23:54;;;;;;;24.63;11.53;;;1.10;99.90;;;;;;4144865;28;20553;-56
2020/12/22 03:25:55;;;;;;;28.33;13.37;;;1.10;99.90;;;;;;4143602;28;20687;-52
2020/12/22 03:27:56;;;;;;;29.00;13.23;;;1.10;99.90;;;;;;4146195;28;20286;-48
2020/12/22 03:29:57;;;;;;;25.10;12.33;;;1.10;99.90;;;;;;4144472;28;20299;-42
2020/12/22 03:31:59;;;;;;;26.20;13.10;;;1.10;99.90;;;;;;4144854;28;20283;-47
2020/12/22 03:34:00;;;;;;;25.20;12.93;;;1.10;99.90;;;;;;4144643;28;20325;-44
2020/12/22 03:36:01;;;;;;;26.63;13.30;;;1.10;99.90;;;;;;4143734;28;20271;-48
2020/12/22 03:38:02;;;;;;;27.77;13.17;;;1.10;99.90;;;;;;4143849;28;20271;-52
2020/12/22 03:40:09;;;;;;;30.63;13.63;;;1.10;99.90;;;;;;4144023;28;20317;-45
2020/12/22 03:42:10;;;;;;;29.97;13.67;;;1.10;99.90;;;;;;4145158;28;20325;-46
2020/12/22 03:44:12;;;;;;;27.37;12.77;;;1.10;99.90;;;;;;4150920;28;20328;-46
2020/12/22 03:46:13;;;;;;;29.33;13.73;;;1.10;99.90;;;;;;4161511;28;20308;-47
2020/12/22 03:48:14;;;;;;;28.83;13.60;;;1.00;99.90;;;;;;4159019;28;20275;-45
2020/12/22 03:50:16;;;;;;;26.83;13.00;;;1.00;99.90;;;;;;4156682;28;20417;-51
2020/12/22 03:52:17;;;;;;;30.73;12.57;;;1.00;99.90;;;;;;4159807;28;20263;-50
2020/12/22 03:54:18;;;;;;;30.73;13.37;;;1.00;99.90;;;;;;4161142;28;20710;-49
2020/12/22 03:56:19;;;;;;;28.43;12.60;;;1.00;99.90;;;;;;4160241;28;20360;-45
2020/12/22 03:58:20;;;;;;;29.87;13.80;;;1.00;99.90;;;;;;4161177;28;20305;-46
2020/12/22 04:00:21;;;;;;;30.73;13.07;;;1.00;99.90;;;;;;4157849;28;20324;-44
2020/12/22 04:02:22;;;;;;;28.17;13.90;;;1.00;99.90;;;;;;4143447;28;20279;-48
2020/12/22 04:04:24;;;;;;;27.43;13.70;;;1.00;99.90;;;;;;4144657;28;20368;-43
2020/12/22 04:06:25;;;;;;;27.67;13.60;;;1.00;99.90;;;;;;4144775;28;20357;-54
2020/12/22 04:08:26;;;;;;;35.93;15.00;;;1.00;99.90;;;;;;4144172;28;20675;-44
2020/12/22 04:10:27;;;;;;;30.30;14.27;;;1.00;99.90;;;;;;4144219;28;20791;-47
2020/12/22 04:12:28;;;;;;;32.33;15.37;;;1.00;99.90;;;;;;4145071;28;20277;-45
2020/12/22 04:14:29;;;;;;;29.87;13.50;;;1.00;99.90;;;;;;4143706;28;20345;-42
2020/12/22 04:16:31;;;;;;;28.53;13.50;;;1.10;99.90;;;;;;4143817;28;20279;-50
2020/12/22 04:18:32;;;;;;;33.80;13.80;;;1.10;99.90;;;;;;4143904;28;20287;-55
2020/12/22 04:20:33;;;;;;;33.00;15.03;;;1.10;99.90;;;;;;4144856;28;20275;-43
2020/12/22 04:22:34;;;;;;;31.17;14.43;;;1.10;99.90;;;;;;4142593;28;20283;-42
2020/12/22 04:24:35;;;;;;;29.63;14.00;;;1.10;99.90;;;;;;4150428;28;20267;-43
2020/12/22 04:26:36;;;;;;;29.80;13.87;;;1.10;99.90;;;;;;4142229;28;20288;-44
2020/12/22 04:28:37;;;;;;;29.73;13.20;;;1.10;99.90;;;;;;4146092;28;20279;-43
2020/12/22 04:30:38;;;;;;;32.93;14.97;;;1.10;99.90;;;;;;4157419;28;20298;-48
2020/12/22 04:32:40;;;;;;;27.20;14.93;;;1.10;99.90;;;;;;4158160;28;20804;-45
2020/12/22 04:34:41;;;;;;;30.77;14.17;;;1.10;99.90;;;;;;4156490;28;20298;-46
2020/12/22 04:36:42;;;;;;;28.30;13.40;;;1.10;99.90;;;;;;4158410;28;20703;-51
2020/12/22 04:38:43;;;;;;;33.77;15.30;;;1.10;99.90;;;;;;4143049;28;20337;-48
2020/12/22 04:40:44;;;;;;;29.17;14.77;;;1.10;99.90;;;;;;4145940;28;20730;-46
2020/12/22 04:42:48;;;;;;;32.87;14.27;;;1.10;99.90;;;;;;4155945;28;20584;-45
2020/12/22 04:44:50;;;;;;;31.07;14.40;;;1.10;99.90;;;;;;4156164;28;20848;-44
2020/12/22 04:46:52;;;;;;;31.07;15.00;;;1.10;99.90;;;;;;4150433;28;21149;-48
2020/12/22 04:48:56;;;;;;;28.93;13.53;;;1.10;99.90;;;;;;4140154;28;20326;-44
2020/12/22 04:51:00;;;;;;;31.03;14.97;;;1.10;99.90;;;;;;4141670;28;20299;-48
2020/12/22 04:53:01;;;;;;;30.83;15.23;;;1.10;99.90;;;;;;4140459;28;20287;-47
2020/12/22 04:55:03;;;;;;;34.97;16.03;;;1.10;99.90;;;;;;4140924;28;20346;-50
2020/12/22 04:57:05;;;;;;;28.83;13.87;;;1.10;99.90;;;;;;4155946;28;20279;-45
2020/12/22 04:59:06;;;;;;;34.27;14.03;;;1.10;99.90;;;;;;4157542;28;20262;-52
2020/12/22 05:01:08;;;;;;;27.70;13.93;;;1.10;99.90;;;;;;4153333;28;20321;-44
2020/12/22 05:03:11;;;;;;;29.90;14.10;;;1.10;99.90;;;;;;4141228;28;20268;-46
2020/12/22 05:05:12;;;;;;;30.50;14.77;;;1.10;99.90;;;;;;4140158;28;20255;-46
2020/12/22 05:07:13;;;;;;;31.37;14.57;;;1.00;99.90;;;;;;4141805;28;20271;-49
2020/12/22 05:09:15;;;;;;;28.43;13.03;;;1.00;99.90;;;;;;4156298;28;20275;-49
2020/12/22 05:11:16;;;;;;;32.87;16.23;;;1.00;99.90;;;;;;4157143;28;20287;-45
2020/12/22 05:13:19;;;;;;;31.50;15.27;;;1.00;99.90;;;;;;4156587;28;20306;-43
2020/12/22 05:15:20;;;;;;;28.43;14.00;;;1.00;99.90;;;;;;4150372;28;20282;-45
2020/12/22 05:17:21;;;;;;;32.40;15.17;;;1.00;99.90;;;;;;4141007;28;20276;-43
2020/12/22 05:19:23;;;;;;;29.30;13.33;;;1.00;99.90;;;;;;4140410;28;20672;-49
2020/12/22 05:21:24;;;;;;;35.40;15.10;;;1.00;99.90;;;;;;4141355;28;20285;-43
2020/12/22 05:23:27;;;;;;;30.57;14.03;;;1.00;99.90;;;;;;4139774;28;20333;-43
2020/12/22 05:25:28;;;;;;;33.93;16.37;;;1.00;99.90;;;;;;4140939;28;20256;-47
2020/12/22 05:27:30;;;;;;;35.53;15.87;;;1.00;99.90;;;;;;4144708;28;20267;-42
2020/12/22 05:29:32;;;;;;;35.63;15.50;;;1.00;99.90;;;;;;4156068;28;20824;-44
2020/12/22 05:31:40;;;;;;;34.60;14.13;;;1.00;99.90;;;;;;4154809;28;20270;-42
2020/12/22 05:33:45;;;;;;;28.47;13.83;;;1.00;99.90;;;;;;4156842;28;20667;-46
2020/12/22 05:35:48;;;;;;;30.23;14.53;;;1.00;99.90;;;;;;4155907;28;20266;-49
2020/12/22 05:37:51;;;;;;;30.83;13.43;;;1.00;99.90;;;;;;4156867;28;20888;-45
2020/12/22 05:39:53;;;;;;;30.77;12.87;;;1.00;99.90;;;;;;4153942;28;20328;-44
2020/12/22 05:41:54;;;;;;;27.50;13.37;;;1.00;99.90;;;;;;4142817;28;20283;-46
2020/12/22 05:43:55;;;;;;;28.43;14.00;;;1.00;99.90;;;;;;4139310;28;20310;-49
2020/12/22 05:46:00;;;;;;;31.23;13.47;;;1.00;99.90;;;;;;4140670;28;20863;-47
2020/12/22 05:48:03;;;;;;;26.17;12.83;;;1.00;99.90;;;;;;4138884;28;20279;-49
2020/12/22 05:50:05;;;;;;;37.53;14.23;;;1.00;99.90;;;;;;4139827;28;20294;-45
2020/12/22 05:52:07;;;;;;;36.73;15.53;;;1.00;99.90;;;;;;4139918;28;20341;-43
2020/12/22 05:54:12;;;;;;;28.27;14.10;;;1.00;99.90;;;;;;4139748;28;20264;-43
2020/12/22 05:56:22;;;;;;;28.70;13.53;;;1.00;99.90;;;;;;4139297;28;20279;-46
2020/12/22 05:58:30;;;;;;;31.80;15.13;;;1.00;99.90;;;;;;4139540;28;20267;-45
2020/12/22 06:00:31;;;;;;;28.57;14.03;;;1.00;99.90;;;;;;4139937;28;20263;-43
2020/12/22 06:02:32;;;;;;;28.00;13.37;;;1.00;99.90;;;;;;4138510;28;20353;-46
2020/12/22 06:04:34;;;;;;;34.53;15.53;;;1.00;99.90;;;;;;4139744;28;20402;-49
2020/12/22 06:06:36;;;;;;;33.93;15.87;;;0.90;99.90;;;;;;4138794;28;20640;-49
2020/12/22 06:08:38;;;;;;;32.63;14.50;;;0.90;99.90;;;;;;4139832;28;20272;-42
2020/12/22 06:10:40;;;;;;;28.50;14.00;;;1.00;99.90;;;;;;4139718;28;20361;-48
2020/12/22 06:12:42;;;;;;;28.17;14.07;;;1.00;99.90;;;;;;4140464;28;20287;-48
2020/12/22 06:14:46;;;;;;;29.03;13.07;;;1.10;99.90;;;;;;4138580;28;20279;-46
2020/12/22 06:16:48;;;;;;;32.03;13.50;;;1.10;99.90;;;;;;4139727;28;20326;-46
2020/12/22 06:18:50;;;;;;;34.47;14.10;;;1.10;99.90;;;;;;4138615;28;20928;-45
2020/12/22 06:20:51;;;;;;;33.57;15.13;;;1.10;99.90;;;;;;4139617;28;20271;-43
2020/12/22 06:23:07;;;;;;;34.43;14.37;;;1.10;99.90;;;;;;4138650;28;20330;-54
2020/12/22 06:25:08;;;;;;;35.97;16.23;;;1.10;99.90;;;;;;4139919;28;20857;-51
2020/12/22 06:27:11;;;;;;;28.63;15.00;;;1.10;99.90;;;;;;4138201;28;20335;-46
2020/12/22 06:29:25;;;;;;;30.07;15.50;;;1.10;99.90;;;;;;4144199;28;20711;-40
2020/12/22 06:31:33;;;;;;;31.73;15.27;;;1.10;99.90;;;;;;4140388;28;20345;-42
2020/12/22 06:33:37;;;;;;;36.97;15.47;;;1.10;99.90;;;;;;4137184;28;20314;-58
2020/12/22 06:35:38;;;;;;;33.47;16.00;;;1.10;99.90;;;;;;4137981;28;20267;-41
2020/12/22 06:37:41;;;;;;;34.73;15.20;;;1.10;99.90;;;;;;4127851;28;20284;-41
2020/12/22 06:39:44;;;;;;;35.17;15.33;;;1.10;99.90;;;;;;4139818;28;20330;-40
2020/12/22 06:41:45;;;;;;;36.17;15.47;;;1.10;99.90;;;;;;4139280;28;20267;-39
2020/12/22 06:43:47;;;;;;;35.43;16.17;;;1.10;99.90;;;;;;4140860;28;20271;-40
2020/12/22 06:45:48;;;;;;;37.83;15.90;;;1.10;99.90;;;;;;4139150;28;20678;-38
2020/12/22 06:47:49;;;;;;;35.07;15.33;;;1.10;99.90;;;;;;4138764;28;20267;-39
2020/12/22 06:49:54;;;;;;;35.43;16.33;;;1.10;99.90;;;;;;4139200;28;20295;-41
2020/12/22 06:51:55;;;;;;;36.53;15.53;;;1.10;99.90;;;;;;4139790;28;20275;-42
2020/12/22 06:53:56;;;;;;;36.00;14.70;;;1.10;99.90;;;;;;4138885;28;20755;-51
2020/12/22 06:55:57;;;;;;;35.10;14.93;;;1.10;99.90;;;;;;4139657;28;20823;-49
2020/12/22 06:57:58;;;;;;;37.10;16.23;;;1.10;99.90;;;;;;4138189;28;20267;-39
2020/12/22 07:00:01;;;;;;;30.07;13.73;;;1.10;99.90;;;;;;4139265;28;20295;-38
2020/12/22 07:02:02;;;;;;;31.87;14.67;;;1.20;99.90;;;;;;4139900;28;20426;-47
2020/12/22 07:04:18;;;;;;;29.80;15.17;;;1.10;99.90;;;;;;4138737;28;20334;-50
2020/12/22 07:06:46;;;;;;;30.93;14.03;;;1.10;99.90;;;;;;4139371;28;20271;-46
2020/12/22 07:08:50;;;;;;;36.00;15.00;;;1.10;99.90;;;;;;4139485;28;20717;-42
2020/12/22 07:10:51;;;;;;;34.27;15.57;;;1.10;99.90;;;;;;4135912;28;20300;-45
2020/12/22 07:12:55;;;;;;;35.03;14.40;;;1.10;99.90;;;;;;4140239;28;20260;-48
2020/12/22 07:14:57;;;;;;;29.37;14.17;;;1.10;99.90;;;;;;4138243;28;20349;-47
2020/12/22 07:17:00;;;;;;;29.30;13.53;;;1.20;99.90;;;;;;4139652;28;21004;-50
2020/12/22 07:19:03;;;;;;;33.97;15.60;;;1.20;99.90;;;;;;4138422;28;20291;-48
2020/12/22 07:21:05;;;;;;;32.53;15.23;;;1.20;99.90;;;;;;4139744;28;20751;-41
2020/12/22 07:23:07;;;;;;;35.50;16.30;;;1.20;99.90;;;;;;4139636;28;20310;-50
2020/12/22 07:25:09;;;;;;;33.83;15.40;;;1.20;99.90;;;;;;4138788;28;20660;-46
2020/12/22 07:27:10;;;;;;;38.03;16.27;;;1.30;99.90;;;;;;4142153;28;20317;-46
2020/12/22 07:29:12;;;;;;;29.83;13.90;;;1.30;99.90;;;;;;4154631;28;20678;-49
2020/12/22 07:31:19;;;;;;;29.83;15.87;;;1.30;99.90;;;;;;4143059;28;20288;-44
2020/12/22 07:33:20;;;;;;;30.37;15.30;;;1.30;99.90;;;;;;4138056;28;20276;-43
2020/12/22 07:35:21;;;;;;;34.30;16.63;;;1.40;99.90;;;;;;4139000;28;20271;-39
2020/12/22 07:37:22;;;;;;;40.37;16.57;;;1.40;99.90;;;;;;4141004;28;20316;-43
2020/12/22 07:39:24;;;;;;;48.27;18.30;;;1.40;99.90;;;;;;4146356;28;20267;-44
2020/12/22 07:41:26;;;;;;;33.47;15.80;;;1.40;99.90;;;;;;4138522;28;20306;-44
2020/12/22 07:43:27;;;;;;;30.90;15.07;;;1.50;99.90;;;;;;4139323;28;20341;-42
2020/12/22 07:45:28;;;;;;;29.80;14.50;;;1.50;99.90;;;;;;4138356;28;20271;-40
2020/12/22 07:47:29;;;;;;;38.33;14.60;;;1.50;99.90;;;;;;4139050;28;20271;-46
2020/12/22 07:49:30;;;;;;;39.50;15.43;;;1.50;99.90;;;;;;4139012;28;20264;-48
2020/12/22 07:51:32;;;;;;;37.03;16.77;;;1.60;99.90;;;;;;4138955;28;20299;-44
2020/12/22 07:53:33;;;;;;;30.10;14.50;;;1.60;99.90;;;;;;4138173;28;20330;-38
2020/12/22 07:55:38;;;;;;;30.57;14.90;;;1.60;99.90;;;;;;4138057;28;20295;-45
2020/12/22 07:57:40;;;;;;;32.07;14.13;;;1.60;99.90;;;;;;4138642;28;20279;-45
2020/12/22 07:59:43;;;;;;;29.60;15.33;;;1.50;99.90;;;;;;4154453;28;20325;-46
2020/12/22 08:01:47;;;;;;;34.87;15.00;;;1.50;99.90;;;;;;4140649;28;20327;-38
2020/12/22 08:03:48;;;;;;;26.83;13.47;;;1.50;99.90;;;;;;4156979;28;20325;-43
2020/12/22 08:06:03;;;;;;;31.67;15.23;;;1.50;99.90;;;;;;4139069;28;20271;-39
2020/12/22 08:08:04;;;;;;;40.20;15.53;;;1.50;99.90;;;;;;4157404;28;20316;-45
2020/12/22 08:10:13;;;;;;;32.00;15.10;;;1.50;99.90;;;;;;4144044;28;20284;-41
2020/12/22 08:12:14;;;;;;;38.40;16.27;;;1.50;99.90;;;;;;4125537;28;20272;-40
2020/12/22 08:14:15;;;;;;;37.63;16.27;;;1.50;99.90;;;;;;4142535;28;20310;-50
2020/12/22 08:16:18;;;;;;;32.97;15.90;;;1.60;99.90;;;;;;4142156;28;20350;-53
2020/12/22 08:18:19;;;;;;;30.87;14.17;;;1.60;99.90;;;;;;4141071;28;20314;-48
2020/12/22 08:20:21;;;;;;;33.17;15.60;;;1.60;99.90;;;;;;4140239;28;20333;-37
2020/12/22 08:22:22;;;;;;;29.77;13.97;;;1.60;99.90;;;;;;4141637;28;20268;-41
2020/12/22 08:24:24;;;;;;;31.50;13.87;;;1.60;99.90;;;;;;4139314;28;20263;-47
2020/12/22 08:26:25;;;;;;;34.03;15.63;;;1.60;99.90;;;;;;4141958;28;20299;-52
2020/12/22 08:28:26;;;;;;;36.67;16.63;;;1.60;99.90;;;;;;4122840;28;20342;-44
2020/12/22 08:30:29;;;;;;;40.23;17.70;;;1.70;99.90;;;;;;4144404;28;20306;-40
2020/12/22 08:32:30;;;;;;;30.63;15.23;;;1.70;99.90;;;;;;4155791;28;20263;-39
2020/12/22 08:34:32;;;;;;;33.80;14.63;;;1.80;99.90;;;;;;4155562;28;20326;-38
2020/12/22 08:36:34;;;;;;;30.87;14.97;;;1.80;99.90;;;;;;4136569;28;20276;-44
2020/12/22 08:38:35;;;;;;;36.53;16.57;;;1.80;99.90;;;;;;4140549;28;20345;-40
2020/12/22 08:40:36;;;;;;;32.13;14.80;;;1.70;99.90;;;;;;4141735;28;20373;-42
2020/12/22 08:42:37;;;;;;;38.80;17.00;;;1.80;99.90;;;;;;4141891;28;20333;-39
2020/12/22 08:44:48;;;;;;;35.73;14.87;;;1.90;99.90;;;;;;4141579;28;20270;-41
2020/12/22 08:46:53;;;;;;;34.77;15.83;;;1.90;99.90;;;;;;4140277;28;20602;-43
2020/12/22 08:48:54;;;;;;;30.23;15.03;;;2.00;99.90;;;;;;4142379;28;20406;-39
2020/12/22 08:50:55;;;;;;;35.27;15.83;;;1.90;99.90;;;;;;4140771;28;20378;-44
2020/12/22 08:52:57;;;;;;;32.90;15.23;;;1.90;99.90;;;;;;4142187;28;20296;-46
2020/12/22 08:55:01;;;;;;;36.47;17.67;;;1.90;99.90;;;;;;4156318;28;20329;-48
2020/12/22 08:57:14;;;;;;;36.90;15.00;;;1.90;99.90;;;;;;4158330;28;20270;-46
2020/12/22 08:59:15;;;;;;;43.23;20.27;;;1.80;99.90;;;;;;4157083;28;20285;-44
2020/12/22 09:01:21;;;;;;;68.20;30.70;;;1.90;99.90;;;;;;4156619;28;20278;-43
2020/12/22 09:03:23;;;;;;;65.80;33.40;;;1.90;99.90;;;;;;4141094;28;20260;-42
2020/12/22 09:05:28;;;;;;;65.27;29.63;;;2.00;99.90;;;;;;4153058;28;20290;-53
2020/12/22 09:07:29;;;;;;;49.20;21.80;;;2.00;99.90;;;;;;4157146;28;21137;-45
2020/12/22 09:09:30;;;;;;;35.93;15.90;;;2.00;99.90;;;;;;4155943;28;20259;-42
2020/12/22 09:11:32;;;;;;;37.50;16.57;;;2.00;99.90;;;;;;4156714;28;20364;-51
2020/12/22 09:13:33;;;;;;;33.97;16.30;;;1.90;99.90;;;;;;4157497;28;20948;-42
2020/12/22 09:15:34;;;;;;;36.03;14.67;;;2.00;99.90;;;;;;4155025;28;20278;-42
2020/12/22 09:17:36;;;;;;;39.93;14.97;;;2.00;99.90;;;;;;4140433;28;20307;-46
2020/12/22 09:19:50;;;;;;;28.63;14.93;;;2.10;99.90;;;;;;4140624;28;20295;-48
2020/12/22 09:22:00;;;;;;;42.33;15.47;;;2.10;99.90;;;;;;4141088;28;20268;-52
2020/12/22 09:24:01;;;;;;;31.83;15.27;;;2.10;99.90;;;;;;4139946;28;21297;-47
2020/12/22 09:26:02;;;;;;;38.10;17.30;;;2.20;99.90;;;;;;4141705;28;20275;-44
2020/12/22 09:28:03;;;;;;;37.43;16.33;;;2.20;99.90;;;;;;4140267;28;20334;-45
2020/12/22 09:30:15;;;;;;;33.73;15.87;;;2.20;99.90;;;;;;4139510;28;20852;-46
2020/12/22 09:32:16;;;;;;;38.87;15.13;;;2.20;99.90;;;;;;4140303;28;20292;-47
2020/12/22 09:34:17;;;;;;;38.97;15.77;;;2.20;99.90;;;;;;4122614;28;20280;-47
2020/12/22 09:36:18;;;;;;;39.37;15.67;;;2.30;99.90;;;;;;4140930;28;21009;-44
2020/12/22 09:38:20;;;;;;;31.30;15.50;;;2.30;99.90;;;;;;4139137;28;20314;-46
2020/12/22 09:40:21;;;;;;;29.80;13.63;;;2.20;99.90;;;;;;4139523;28;20271;-48
2020/12/22 09:42:24;;;;;;;33.87;15.77;;;2.30;99.90;;;;;;4143392;28;20267;-42
2020/12/22 09:44:26;;;;;;;34.60;15.03;;;2.20;99.90;;;;;;4140884;28;20271;-38
2020/12/22 09:46:27;;;;;;;29.53;14.03;;;2.30;99.90;;;;;;4155702;28;20353;-45
2020/12/22 09:48:28;;;;;;;32.23;15.57;;;2.30;99.90;;;;;;4146518;28;20341;-56
2020/12/22 09:50:29;;;;;;;32.67;14.23;;;2.40;99.90;;;;;;4139428;28;20271;-45
2020/12/22 09:52:30;;;;;;;31.73;15.80;;;2.40;99.90;;;;;;4140607;28;20340;-54
2020/12/22 09:54:33;;;;;;;33.27;16.53;;;2.50;99.90;;;;;;4136242;28;20333;-46
2020/12/22 09:56:34;;;;;;;32.67;14.93;;;2.50;99.90;;;;;;4139215;28;20271;-41
2020/12/22 09:58:35;;;;;;;31.53;14.43;;;2.60;99.90;;;;;;4140194;28;20298;-47
2020/12/22 10:00:37;;;;;;;30.67;14.87;;;2.70;99.90;;;;;;4138873;28;20275;-42
2020/12/22 10:02:38;;;;;;;31.60;15.60;;;2.70;99.90;;;;;;4139264;28;20744;-42
2020/12/22 10:04:39;;;;;;;29.83;13.93;;;2.80;99.90;;;;;;4138748;28;20276;-49
2020/12/22 10:06:41;;;;;;;30.80;14.57;;;2.80;99.90;;;;;;4139960;28;20263;-44
2020/12/22 10:08:42;;;;;;;29.33;13.83;;;2.80;99.90;;;;;;4138855;28;20655;-53
2020/12/22 10:10:43;;;;;;;28.33;13.50;;;2.90;99.90;;;;;;4140480;28;20306;-56
2020/12/22 10:12:44;;;;;;;33.30;14.47;;;2.80;99.90;;;;;;4139033;28;20326;-44
2020/12/22 10:14:45;;;;;;;31.97;14.43;;;2.80;99.90;;;;;;4139374;28;20295;-43
2020/12/22 10:16:46;;;;;;;33.93;15.40;;;2.90;99.90;;;;;;4138567;28;20279;-44
2020/12/22 10:18:49;;;;;;;28.73;14.23;;;3.00;99.90;;;;;;4149455;28;20298;-47
2020/12/22 10:20:50;;;;;;;31.73;13.23;;;2.90;99.90;;;;;;4154058;28;20279;-45
2020/12/22 10:22:51;;;;;;;31.83;15.77;;;2.90;99.90;;;;;;4142499;28;20280;-41
2020/12/22 10:24:52;;;;;;;27.97;13.80;;;2.90;99.90;;;;;;4137736;28;20433;-51
2020/12/22 10:26:53;;;;;;;29.10;13.00;;;3.00;99.90;;;;;;4155732;28;20329;-42